ADDS METAR Data INFO
IDs: Format: Raw Decoded Include TAF

Data at: 1925 UTC 19 Jul 2018

KFEP 191915Z AUTO 21003KT 4SM +RA SCT070 OVC090 20/18 A2995 RMK AO2 LTG DSNT S P0004 T01950183
KFEP 191855Z AUTO 26005KT 7SM -RA SCT060 SCT070 OVC090 20/18 A2995 RMK AO2 LTG DSNT S P0001 T02030180
KFEP 191835Z AUTO 00000KT 10SM SCT060 BKN080 OVC100 22/17 A2995 RMK AO2 LTG DSNT S THRU W T02170166
KFEP 191815Z AUTO 22004KT 10SM OVC080 22/17 A2995 RMK AO2 LTG DSNT SW T02180170
KFEP 191755Z AUTO 18005KT 10SM -RA BKN070 OVC080 22/17 A2996 RMK AO2 LTG DSNT SW T02150168 10244 20155
KFEP 191735Z AUTO 15008KT 10SM SCT060 BKN090 BKN120 23/15 A2996 RMK AO2 LTG DSNT SW T02320152
KFEP 191715Z AUTO 14007KT 10SM BKN100 BKN120 24/16 A2996 RMK AO2 LTG DSNT SW T02370157
KFEP 191655Z AUTO 14010KT 10SM SCT090 BKN110 24/15 A2996 RMK AO2 LTG DSNT SW T02390153
KFEP 191635Z AUTO 12009KT 10SM SCT110 24/15 A2996 RMK AO2 LTG DSNT SW T02420153
KFEP 191615Z AUTO 13008KT 10SM CLR 23/15 A2997 RMK AO2 LTG DSNT SW T02290150
KFEP 191555Z AUTO 14009KT 10SM CLR 22/14 A2997 RMK AO2 T02240143
KFEP 191535Z AUTO 13010KT 10SM CLR 23/14 A2998 RMK AO2 LTG DSNT W T02270143
KFEP 191515Z AUTO 14008KT 10SM CLR 22/15 A2999 RMK AO2 T02180148
KFEP 191455Z AUTO 13008KT 10SM CLR 21/16 A2999 RMK AO2 T02100155
KFEP 191435Z AUTO 13008KT 10SM CLR 20/15 A3000 RMK AO2 T01960149
KFEP 191415Z AUTO 12008KT 10SM CLR 20/15 A3001 RMK AO2 T01950154
KFEP 191355Z AUTO 13005KT 10SM CLR 19/15 A3001 RMK AO2 LTG DSNT W T01850154
KFEP 191335Z AUTO 13004KT 10SM CLR 18/15 A3001 RMK AO2 T01800154
KFEP 191315Z AUTO 13005KT 10SM CLR 18/15 A3002 RMK AO2 T01760149
KFEP 191255Z AUTO 13005KT 10SM CLR 17/15 A3002 RMK AO2 LTG DSNT SW AND W T01700145
KFEP 191235Z AUTO 12007KT 10SM CLR 17/14 A3002 RMK AO2 LTG DSNT S AND SW T01650142
KFEP 191215Z AUTO 12005KT 10SM CLR 17/14 A3002 RMK AO2 T01700142
KFEP 191155Z AUTO 00000KT 10SM CLR 15/14 A3002 RMK AO2 T01540138 10160 20121
KFEP 191135Z AUTO 12003KT 10SM CLR 14/13 A3003 RMK AO2 LTG DSNT SW AND W T01410128
KFEP 191115Z AUTO 11004KT 10SM CLR 13/12 A3003 RMK AO2 T01310121
KFEP 191055Z AUTO 11003KT 10SM CLR 13/12 A3003 RMK AO2 LTG DSNT SW T01310124
KFEP 191035Z AUTO 00000KT 10SM CLR 12/12 A3004 RMK AO2 LTG DSNT SW AND W T01210120
KFEP 191015Z AUTO 00000KT 10SM CLR 12/12 A3004 RMK AO2 T01240123
KFEP 190955Z AUTO 00000KT 10SM CLR 14/13 A3003 RMK AO2 T01420126
KFEP 190935Z AUTO 00000KT 10SM CLR 14/12 A3003 RMK AO2 T01370124
KFEP 190915Z AUTO 00000KT 10SM CLR 15/13 A3003 RMK AO2 LTG DSNT SW T01460126
KFEP 190855Z AUTO 00000KT 10SM CLR 14/13 A3003 RMK AO2 T01440130
KFEP 190835Z AUTO 14003KT 10SM CLR 15/13 A3003 RMK AO2 LTG DSNT SW AND W T01450129
KFEP 190815Z AUTO 14004KT 10SM CLR 15/13 A3004 RMK AO2 T01480130
KFEP 190755Z AUTO 15004KT 10SM CLR 15/13 A3004 RMK AO2 T01480130
KFEP 190735Z AUTO 17005KT 10SM CLR 15/13 A3004 RMK AO2 LTG DSNT NW T01530131
KFEP 190715Z AUTO 17006KT 10SM CLR 16/14 A3005 RMK AO2 T01550135
KFEP 190655Z AUTO 16006KT 10SM CLR 16/14 A3005 RMK AO2 T01550140
KFEP 190635Z AUTO 16005KT 10SM CLR 16/14 A3006 RMK AO2 T01550140
KFEP 190615Z AUTO 17004KT 10SM CLR 16/14 A3007 RMK AO2 T01580140
KFEP 190555Z AUTO 16004KT 10SM CLR 16/14 A3007 RMK AO2 T01600141 10235 20160 402600128
KFEP 190535Z AUTO 16005KT 10SM CLR 16/15 A3007 RMK AO2 LTG DSNT W T01640145
KFEP 190515Z AUTO 14004KT 10SM CLR 17/15 A3007 RMK AO2 T01670149
KFEP 190455Z AUTO 14006KT 10SM CLR 17/15 A3007 RMK AO2 T01720153
KFEP 190435Z AUTO 13006KT 10SM CLR 17/16 A3007 RMK AO2 T01710155
KFEP 190415Z AUTO 12007KT 090V160 10SM CLR 17/15 A3007 RMK AO2 T01660153
KFEP 190355Z AUTO 19004KT 10SM CLR 18/16 A3006 RMK AO2 T01750156
KFEP 190335Z AUTO 17004KT 10SM CLR 17/16 A3006 RMK AO2 T01720157
KFEP 190315Z AUTO 17004KT 10SM CLR 18/16 A3006 RMK AO2 T01750160
KFEP 190255Z AUTO 18004KT 10SM CLR 18/16 A3006 RMK AO2 T01790159
KFEP 190235Z AUTO 17003KT 10SM CLR 19/17 A3005 RMK AO2 T01860165
KFEP 190215Z AUTO 17003KT 10SM CLR 19/17 A3005 RMK AO2 T01870168
KFEP 190155Z AUTO 00000KT 10SM CLR 20/18 A3004 RMK AO2 T01960178
KFEP 190135Z AUTO 00000KT 10SM CLR 21/17 A3004 RMK AO2 T02100172
KFEP 190115Z AUTO 00000KT 10SM CLR 22/18 A3005 RMK AO2 T02190177
KFEP 190055Z AUTO 00000KT 10SM CLR 23/18 A3005 RMK AO2 T02270179
KFEP 190035Z AUTO 00000KT 10SM CLR 23/17 A3005 RMK AO2 T02310171
KFEP 190015Z AUTO 00000KT 10SM CLR 23/17 A3005 RMK AO2 T02330168
KFEP 182355Z AUTO 12003KT 10SM CLR 24/17 A3005 RMK AO2 T02350167 10260 20235
KFEP 182335Z AUTO 13003KT 10SM CLR 24/16 A3005 RMK AO2 T02420162
KFEP 182315Z AUTO 14003KT 10SM CLR 25/15 A3006 RMK AO2 T02450152
KFEP 182255Z AUTO 17003KT 10SM CLR 25/15 A3007 RMK AO2 T02460147
KFEP 182235Z AUTO 17004KT 10SM CLR 25/15 A3007 RMK AO2 T02470145
KFEP 182215Z AUTO 20004KT 10SM SCT060 25/15 A3008 RMK AO2 T02470148
KFEP 182155Z AUTO 11003KT 10SM SCT060 26/15 A3008 RMK AO2 T02590147
KFEP 182135Z AUTO 12004KT 10SM SCT050 26/15 A3008 RMK AO2 T02580145
KFEP 182115Z AUTO 00000KT 10SM SCT050 26/14 A3009 RMK AO2 T02570143
KFEP 182055Z AUTO 18004KT 10SM SCT065 26/14 A3010 RMK AO2 T02550140
KFEP 182035Z AUTO 00000KT 10SM CLR 25/14 A3011 RMK AO2 T02500136
KFEP 182015Z AUTO 13003KT 10SM CLR 24/15 A3011 RMK AO2 T02420147
KFEP 181955Z AUTO 14004KT 10SM SCT060 25/15 A3011 RMK AO2 T02460147
KFEP 181935Z AUTO 14006KT 10SM SCT045 BKN050 25/15 A3012 RMK AO2 T02530152
KFEP 181915Z AUTO 00000KT 10SM SCT045 BKN050 26/15 A3012 RMK AO2 T02580151
KFEP 181855Z AUTO 14004KT 10SM SCT050 25/14 A3013 RMK AO2 T02510144
KFEP 181835Z AUTO 19004KT 10SM SCT043 BKN050 25/15 A3013 RMK AO2 T02470145
KFEP 181815Z AUTO 18006KT 10SM SCT050 24/15 A3014 RMK AO2 T02440148
KFEP 181755Z AUTO 18003KT 10SM SCT040 24/15 A3014 RMK AO2 T02430152 10243 20146
KFEP 181735Z AUTO 13003KT 10SM CLR 24/15 A3014 RMK AO2 T02430149
KFEP 181715Z AUTO 17004KT 10SM SCT034 24/16 A3015 RMK AO2 T02410157
KFEP 181655Z AUTO 11007KT 10SM CLR 24/16 A3015 RMK AO2 T02380159
KFEP 181635Z AUTO 13007KT 10SM CLR 23/15 A3016 RMK AO2 T02310154
KFEP 181615Z AUTO 16003KT 10SM CLR 23/15 A3016 RMK AO2 T02300154
KFEP 181555Z AUTO 12004KT 10SM CLR 23/15 A3015 RMK AO2 T02260151
KFEP 181535Z AUTO 14005KT 10SM CLR 22/14 A3016 RMK AO2 T02200144
KFEP 181515Z AUTO 11007KT 10SM CLR 22/16 A3015 RMK AO2 T02190155
KFEP 181455Z AUTO 11004KT 10SM CLR 21/16 A3016 RMK AO2 T02140158
KFEP 181435Z AUTO 13005KT 10SM CLR 21/15 A3016 RMK AO2 T02060153
KFEP 181415Z AUTO 13005KT 10SM CLR 20/16 A3016 RMK AO2 T02040161
KFEP 181355Z AUTO 13006KT 10SM CLR 20/16 A3016 RMK AO2 T01980162
KFEP 181335Z AUTO 12006KT 10SM CLR 19/16 A3016 RMK AO2 T01910161
KFEP 181315Z AUTO 00000KT 10SM CLR 18/16 A3017 RMK AO2 T01790162
KFEP 181255Z AUTO 00000KT 10SM CLR 17/16 A3017 RMK AO2 T01710157
KFEP 181235Z AUTO 00000KT 10SM CLR 16/16 A3016 RMK AO2 T01620155
KFEP 181215Z AUTO 06003KT 10SM CLR 15/15 A3016 RMK AO2 T01500149
KFEP 181155Z AUTO 00000KT 10SM CLR 15/15 A3016 RMK AO2 T01450145 10165 20128
KFEP 181135Z AUTO 00000KT 10SM CLR 14/14 A3016 RMK AO2 T01360136
KFEP 181115Z AUTO 00000KT 10SM CLR 13/13 A3016 RMK AO2 T01300130
KFEP 181055Z AUTO 00000KT 5SM BR CLR 13/13 A3016 RMK AO2 T01320132
KFEP 181035Z AUTO 00000KT 10SM CLR 13/13 A3016 RMK AO2 T01300130
KFEP 181015Z AUTO 00000KT 7SM CLR 13/13 A3015 RMK AO2 T01340134
KFEP 180955Z AUTO 06003KT 10SM CLR 14/14 A3015 RMK AO2 T01350135
KFEP 180935Z AUTO 06004KT 10SM CLR 14/14 A3016 RMK AO2 T01390139
KFEP 180915Z AUTO 00000KT 10SM CLR 14/14 A3015 RMK AO2 T01410140
KFEP 180855Z AUTO 00000KT 10SM CLR 15/14 A3015 RMK AO2 T01460142
KFEP 180835Z AUTO 12003KT 10SM SCT060 15/14 A3016 RMK AO2 T01480143
KFEP 180815Z AUTO 12004KT 10SM SCT060 15/14 A3016 RMK AO2 T01460141
KFEP 180755Z AUTO 13003KT 10SM BKN060 15/15 A3016 RMK AO2 T01510145
KFEP 180735Z AUTO 13004KT 10SM BKN060 16/15 A3015 RMK AO2 T01550147